sensor_id;sensor_type;location;lat;lon;timestamp;P1;durP1;ratioP1;P2;durP2;ratioP2
65691;SDS011;52411;52.716;6.696;2024-03-08T00:01:12;10.93;;;5.50;;
65691;SDS011;52411;52.716;6.696;2024-03-08T00:03:37;14.32;;;6.93;;
65691;SDS011;52411;52.716;6.696;2024-03-08T00:06:05;12.82;;;7.07;;
65691;SDS011;52411;52.716;6.696;2024-03-08T00:08:31;12.25;;;5.05;;
65691;SDS011;52411;52.716;6.696;2024-03-08T00:10:56;10.43;;;6.10;;
65691;SDS011;52411;52.716;6.696;2024-03-08T00:13:22;14.45;;;7.15;;
65691;SDS011;52411;52.716;6.696;2024-03-08T00:15:47;17.60;;;7.38;;
65691;SDS011;52411;52.716;6.696;2024-03-08T00:18:13;17.58;;;7.47;;
65691;SDS011;52411;52.716;6.696;2024-03-08T00:20:38;14.45;;;6.43;;
65691;SDS011;52411;52.716;6.696;2024-03-08T00:23:04;16.67;;;6.85;;
65691;SDS011;52411;52.716;6.696;2024-03-08T00:25:30;14.75;;;6.93;;
65691;SDS011;52411;52.716;6.696;2024-03-08T00:27:55;17.05;;;6.55;;
65691;SDS011;52411;52.716;6.696;2024-03-08T00:30:22;13.85;;;7.03;;
65691;SDS011;52411;52.716;6.696;2024-03-08T00:32:48;15.95;;;7.03;;
65691;SDS011;52411;52.716;6.696;2024-03-08T00:35:14;16.90;;;6.82;;
65691;SDS011;52411;52.716;6.696;2024-03-08T00:37:40;16.48;;;7.60;;
65691;SDS011;52411;52.716;6.696;2024-03-08T00:42:37;10.95;;;5.78;;
65691;SDS011;52411;52.716;6.696;2024-03-08T00:45:05;14.63;;;7.13;;
65691;SDS011;52411;52.716;6.696;2024-03-08T00:47:30;11.77;;;6.80;;
65691;SDS011;52411;52.716;6.696;2024-03-08T00:49:56;13.70;;;6.88;;
65691;SDS011;52411;52.716;6.696;2024-03-08T00:52:22;14.75;;;6.70;;
65691;SDS011;52411;52.716;6.696;2024-03-08T00:54:49;13.75;;;6.57;;
65691;SDS011;52411;52.716;6.696;2024-03-08T00:57:14;19.10;;;6.72;;
65691;SDS011;52411;52.716;6.696;2024-03-08T00:59:40;12.55;;;6.65;;
65691;SDS011;52411;52.716;6.696;2024-03-08T01:02:06;17.08;;;7.03;;
65691;SDS011;52411;52.716;6.696;2024-03-08T01:04:31;15.15;;;8.48;;
65691;SDS011;52411;52.716;6.696;2024-03-08T01:06:58;12.15;;;6.35;;
65691;SDS011;52411;52.716;6.696;2024-03-08T01:09:24;15.10;;;7.32;;
65691;SDS011;52411;52.716;6.696;2024-03-08T01:11:51;14.75;;;6.57;;
65691;SDS011;52411;52.716;6.696;2024-03-08T01:14:19;13.98;;;7.00;;
65691;SDS011;52411;52.716;6.696;2024-03-08T01:16:47;19.95;;;7.70;;
65691;SDS011;52411;52.716;6.696;2024-03-08T01:19:13;15.93;;;7.28;;
65691;SDS011;52411;52.716;6.696;2024-03-08T01:21:39;18.27;;;7.63;;
65691;SDS011;52411;52.716;6.696;2024-03-08T01:24:04;11.45;;;6.38;;
65691;SDS011;52411;52.716;6.696;2024-03-08T01:26:30;13.95;;;6.68;;
65691;SDS011;52411;52.716;6.696;2024-03-08T01:28:56;14.57;;;6.93;;
65691;SDS011;52411;52.716;6.696;2024-03-08T01:31:21;12.35;;;5.78;;
65691;SDS011;52411;52.716;6.696;2024-03-08T01:33:47;20.65;;;6.80;;
65691;SDS011;52411;52.716;6.696;2024-03-08T01:36:15;18.13;;;7.18;;
65691;SDS011;52411;52.716;6.696;2024-03-08T01:38:41;14.18;;;6.60;;
65691;SDS011;52411;52.716;6.696;2024-03-08T01:41:07;15.45;;;5.95;;
65691;SDS011;52411;52.716;6.696;2024-03-08T01:43:34;18.13;;;7.60;;
65691;SDS011;52411;52.716;6.696;2024-03-08T01:45:59;14.98;;;6.68;;
65691;SDS011;52411;52.716;6.696;2024-03-08T01:48:27;15.13;;;7.15;;
65691;SDS011;52411;52.716;6.696;2024-03-08T01:50:54;13.85;;;6.88;;
65691;SDS011;52411;52.716;6.696;2024-03-08T01:53:21;14.05;;;6.88;;
65691;SDS011;52411;52.716;6.696;2024-03-08T01:55:48;13.73;;;5.65;;
65691;SDS011;52411;52.716;6.696;2024-03-08T01:58:15;12.30;;;6.40;;
65691;SDS011;52411;52.716;6.696;2024-03-08T02:00:44;15.98;;;6.80;;
65691;SDS011;52411;52.716;6.696;2024-03-08T02:03:11;19.08;;;7.60;;
65691;SDS011;52411;52.716;6.696;2024-03-08T02:05:38;13.40;;;7.10;;
65691;SDS011;52411;52.716;6.696;2024-03-08T02:08:05;13.75;;;7.00;;
65691;SDS011;52411;52.716;6.696;2024-03-08T02:10:38;16.25;;;7.03;;
65691;SDS011;52411;52.716;6.696;2024-03-08T02:13:04;16.00;;;6.85;;
65691;SDS011;52411;52.716;6.696;2024-03-08T02:18:18;19.50;;;7.18;;
65691;SDS011;52411;52.716;6.696;2024-03-08T02:20:46;15.23;;;6.65;;
65691;SDS011;52411;52.716;6.696;2024-03-08T02:23:14;19.42;;;6.38;;
65691;SDS011;52411;52.716;6.696;2024-03-08T02:25:40;15.95;;;7.80;;
65691;SDS011;52411;52.716;6.696;2024-03-08T02:28:08;16.70;;;7.63;;
65691;SDS011;52411;52.716;6.696;2024-03-08T02:30:36;12.63;;;6.45;;
65691;SDS011;52411;52.716;6.696;2024-03-08T02:33:01;16.42;;;7.18;;
65691;SDS011;52411;52.716;6.696;2024-03-08T02:35:27;16.42;;;7.30;;
65691;SDS011;52411;52.716;6.696;2024-03-08T02:37:52;19.25;;;7.45;;
65691;SDS011;52411;52.716;6.696;2024-03-08T02:40:18;10.90;;;5.90;;
65691;SDS011;52411;52.716;6.696;2024-03-08T02:42:43;15.80;;;6.82;;
65691;SDS011;52411;52.716;6.696;2024-03-08T02:45:09;13.90;;;6.60;;
65691;SDS011;52411;52.716;6.696;2024-03-08T02:47:35;15.15;;;6.57;;
65691;SDS011;52411;52.716;6.696;2024-03-08T02:50:01;16.17;;;6.88;;
65691;SDS011;52411;52.716;6.696;2024-03-08T02:52:26;12.35;;;5.88;;
65691;SDS011;52411;52.716;6.696;2024-03-08T02:54:52;13.20;;;6.32;;
65691;SDS011;52411;52.716;6.696;2024-03-08T02:57:18;13.48;;;6.13;;
65691;SDS011;52411;52.716;6.696;2024-03-08T02:59:43;16.65;;;7.35;;
65691;SDS011;52411;52.716;6.696;2024-03-08T03:02:10;15.05;;;7.03;;
65691;SDS011;52411;52.716;6.696;2024-03-08T03:04:39;23.92;;;7.75;;
65691;SDS011;52411;52.716;6.696;2024-03-08T03:07:05;16.20;;;6.65;;
65691;SDS011;52411;52.716;6.696;2024-03-08T03:09:30;11.50;;;6.63;;
65691;SDS011;52411;52.716;6.696;2024-03-08T03:11:58;13.10;;;5.88;;
65691;SDS011;52411;52.716;6.696;2024-03-08T03:14:24;11.50;;;6.75;;
65691;SDS011;52411;52.716;6.696;2024-03-08T03:16:52;13.15;;;6.88;;
65691;SDS011;52411;52.716;6.696;2024-03-08T03:19:18;12.73;;;6.53;;
65691;SDS011;52411;52.716;6.696;2024-03-08T03:21:43;13.82;;;7.80;;
65691;SDS011;52411;52.716;6.696;2024-03-08T03:24:09;17.45;;;7.68;;
65691;SDS011;52411;52.716;6.696;2024-03-08T03:26:38;15.20;;;7.75;;
65691;SDS011;52411;52.716;6.696;2024-03-08T03:29:06;14.73;;;6.53;;
65691;SDS011;52411;52.716;6.696;2024-03-08T03:31:34;12.68;;;6.78;;
65691;SDS011;52411;52.716;6.696;2024-03-08T03:34:01;14.18;;;6.05;;
65691;SDS011;52411;52.716;6.696;2024-03-08T03:36:28;14.13;;;7.60;;
65691;SDS011;52411;52.716;6.696;2024-03-08T03:38:54;14.57;;;6.85;;
65691;SDS011;52411;52.716;6.696;2024-03-08T03:41:34;12.93;;;6.45;;
65691;SDS011;52411;52.716;6.696;2024-03-08T03:44:00;13.80;;;7.13;;
65691;SDS011;52411;52.716;6.696;2024-03-08T03:46:25;11.93;;;6.47;;
65691;SDS011;52411;52.716;6.696;2024-03-08T03:48:52;16.70;;;7.25;;
65691;SDS011;52411;52.716;6.696;2024-03-08T03:51:19;15.45;;;6.68;;
65691;SDS011;52411;52.716;6.696;2024-03-08T03:53:45;13.82;;;6.20;;
65691;SDS011;52411;52.716;6.696;2024-03-08T03:56:10;12.02;;;6.68;;
65691;SDS011;52411;52.716;6.696;2024-03-08T03:58:36;15.45;;;7.65;;
65691;SDS011;52411;52.716;6.696;2024-03-08T04:01:04;15.57;;;7.85;;
65691;SDS011;52411;52.716;6.696;2024-03-08T04:03:29;15.82;;;6.72;;
65691;SDS011;52411;52.716;6.696;2024-03-08T04:05:55;18.73;;;8.02;;
65691;SDS011;52411;52.716;6.696;2024-03-08T04:08:21;15.82;;;7.40;;
65691;SDS011;52411;52.716;6.696;2024-03-08T04:10:47;15.20;;;7.15;;
65691;SDS011;52411;52.716;6.696;2024-03-08T04:13:13;15.57;;;7.13;;
65691;SDS011;52411;52.716;6.696;2024-03-08T04:15:40;16.35;;;6.25;;
65691;SDS011;52411;52.716;6.696;2024-03-08T04:18:09;15.25;;;6.90;;
65691;SDS011;52411;52.716;6.696;2024-03-08T04:20:34;16.75;;;6.78;;
65691;SDS011;52411;52.716;6.696;2024-03-08T04:23:02;14.32;;;7.35;;
65691;SDS011;52411;52.716;6.696;2024-03-08T04:25:28;14.38;;;7.25;;
65691;SDS011;52411;52.716;6.696;2024-03-08T04:27:53;16.55;;;8.02;;
65691;SDS011;52411;52.716;6.696;2024-03-08T04:30:19;14.27;;;8.05;;
65691;SDS011;52411;52.716;6.696;2024-03-08T04:32:46;13.00;;;6.90;;
65691;SDS011;52411;52.716;6.696;2024-03-08T04:35:12;14.75;;;8.20;;
65691;SDS011;52411;52.716;6.696;2024-03-08T04:37:39;14.00;;;7.85;;
65691;SDS011;52411;52.716;6.696;2024-03-08T04:40:05;14.90;;;7.32;;
65691;SDS011;52411;52.716;6.696;2024-03-08T04:42:31;15.38;;;7.50;;
65691;SDS011;52411;52.716;6.696;2024-03-08T04:44:58;21.83;;;8.57;;
65691;SDS011;52411;52.716;6.696;2024-03-08T04:47:24;10.95;;;6.53;;
65691;SDS011;52411;52.716;6.696;2024-03-08T04:49:50;11.27;;;6.20;;
65691;SDS011;52411;52.716;6.696;2024-03-08T04:52:16;16.40;;;8.10;;
65691;SDS011;52411;52.716;6.696;2024-03-08T04:54:42;14.82;;;7.47;;
65691;SDS011;52411;52.716;6.696;2024-03-08T04:57:09;16.83;;;6.75;;
65691;SDS011;52411;52.716;6.696;2024-03-08T04:59:35;14.77;;;7.07;;
65691;SDS011;52411;52.716;6.696;2024-03-08T05:02:01;12.18;;;6.53;;
65691;SDS011;52411;52.716;6.696;2024-03-08T05:04:27;14.43;;;7.10;;
65691;SDS011;52411;52.716;6.696;2024-03-08T05:06:54;15.95;;;7.68;;
65691;SDS011;52411;52.716;6.696;2024-03-08T05:09:19;16.48;;;7.78;;
65691;SDS011;52411;52.716;6.696;2024-03-08T05:11:46;14.88;;;7.93;;
65691;SDS011;52411;52.716;6.696;2024-03-08T05:14:12;18.90;;;7.90;;
65691;SDS011;52411;52.716;6.696;2024-03-08T05:16:45;14.73;;;7.00;;
65691;SDS011;52411;52.716;6.696;2024-03-08T05:19:14;9.88;;;5.57;;
65691;SDS011;52411;52.716;6.696;2024-03-08T05:21:47;15.57;;;7.47;;
65691;SDS011;52411;52.716;6.696;2024-03-08T05:24:14;15.00;;;7.15;;
65691;SDS011;52411;52.716;6.696;2024-03-08T05:26:40;13.30;;;7.18;;
65691;SDS011;52411;52.716;6.696;2024-03-08T05:29:07;12.07;;;6.57;;
65691;SDS011;52411;52.716;6.696;2024-03-08T05:31:49;14.80;;;7.72;;
65691;SDS011;52411;52.716;6.696;2024-03-08T05:34:17;16.83;;;7.80;;
65691;SDS011;52411;52.716;6.696;2024-03-08T05:36:44;11.52;;;6.25;;
65691;SDS011;52411;52.716;6.696;2024-03-08T05:39:14;16.83;;;7.75;;
65691;SDS011;52411;52.716;6.696;2024-03-08T05:41:41;13.95;;;6.55;;
65691;SDS011;52411;52.716;6.696;2024-03-08T05:44:07;15.27;;;7.03;;
65691;SDS011;52411;52.716;6.696;2024-03-08T05:46:33;13.70;;;6.75;;
65691;SDS011;52411;52.716;6.696;2024-03-08T05:49:00;16.13;;;8.20;;
65691;SDS011;52411;52.716;6.696;2024-03-08T05:51:33;15.05;;;6.45;;
65691;SDS011;52411;52.716;6.696;2024-03-08T05:54:00;15.15;;;6.30;;
65691;SDS011;52411;52.716;6.696;2024-03-08T05:56:28;15.40;;;7.57;;
65691;SDS011;52411;52.716;6.696;2024-03-08T05:58:54;17.48;;;7.57;;
65691;SDS011;52411;52.716;6.696;2024-03-08T06:01:19;16.80;;;8.57;;
65691;SDS011;52411;52.716;6.696;2024-03-08T06:03:46;15.05;;;8.98;;
65691;SDS011;52411;52.716;6.696;2024-03-08T06:06:14;18.75;;;7.45;;
65691;SDS011;52411;52.716;6.696;2024-03-08T06:08:43;13.48;;;7.00;;
65691;SDS011;52411;52.716;6.696;2024-03-08T06:11:09;14.23;;;8.00;;
65691;SDS011;52411;52.716;6.696;2024-03-08T06:13:35;11.65;;;6.68;;
65691;SDS011;52411;52.716;6.696;2024-03-08T06:16:01;20.33;;;7.75;;
65691;SDS011;52411;52.716;6.696;2024-03-08T06:18:30;20.67;;;8.00;;
65691;SDS011;52411;52.716;6.696;2024-03-08T06:20:56;17.92;;;6.68;;
65691;SDS011;52411;52.716;6.696;2024-03-08T06:23:22;15.98;;;7.63;;
65691;SDS011;52411;52.716;6.696;2024-03-08T06:25:48;20.42;;;7.13;;
65691;SDS011;52411;52.716;6.696;2024-03-08T06:28:14;19.13;;;8.75;;
65691;SDS011;52411;52.716;6.696;2024-03-08T06:30:40;15.50;;;6.45;;
65691;SDS011;52411;52.716;6.696;2024-03-08T06:33:06;15.52;;;6.93;;
65691;SDS011;52411;52.716;6.696;2024-03-08T06:35:32;12.93;;;6.63;;
65691;SDS011;52411;52.716;6.696;2024-03-08T06:37:58;14.27;;;8.23;;
65691;SDS011;52411;52.716;6.696;2024-03-08T06:40:24;12.60;;;6.53;;
65691;SDS011;52411;52.716;6.696;2024-03-08T06:42:49;13.90;;;7.18;;
65691;SDS011;52411;52.716;6.696;2024-03-08T06:45:17;16.65;;;8.05;;
65691;SDS011;52411;52.716;6.696;2024-03-08T06:47:46;16.77;;;7.53;;
65691;SDS011;52411;52.716;6.696;2024-03-08T06:50:12;15.05;;;6.97;;
65691;SDS011;52411;52.716;6.696;2024-03-08T06:52:37;13.32;;;7.07;;
65691;SDS011;52411;52.716;6.696;2024-03-08T06:55:04;15.90;;;7.30;;
65691;SDS011;52411;52.716;6.696;2024-03-08T06:57:30;15.77;;;7.45;;
65691;SDS011;52411;52.716;6.696;2024-03-08T06:59:56;14.50;;;7.20;;
65691;SDS011;52411;52.716;6.696;2024-03-08T07:02:22;19.35;;;8.63;;
65691;SDS011;52411;52.716;6.696;2024-03-08T07:04:51;13.75;;;7.35;;
65691;SDS011;52411;52.716;6.696;2024-03-08T07:07:18;23.38;;;8.35;;
65691;SDS011;52411;52.716;6.696;2024-03-08T07:09:45;16.55;;;8.55;;
65691;SDS011;52411;52.716;6.696;2024-03-08T07:12:11;19.60;;;8.20;;
65691;SDS011;52411;52.716;6.696;2024-03-08T07:14:38;16.02;;;7.70;;
65691;SDS011;52411;52.716;6.696;2024-03-08T07:17:08;18.27;;;8.93;;
65691;SDS011;52411;52.716;6.696;2024-03-08T07:19:34;24.90;;;8.98;;
65691;SDS011;52411;52.716;6.696;2024-03-08T07:22:00;12.57;;;6.40;;
65691;SDS011;52411;52.716;6.696;2024-03-08T07:24:28;16.17;;;8.50;;
65691;SDS011;52411;52.716;6.696;2024-03-08T07:27:06;18.08;;;7.97;;
65691;SDS011;52411;52.716;6.696;2024-03-08T07:29:32;16.52;;;7.65;;
65691;SDS011;52411;52.716;6.696;2024-03-08T07:31:58;17.63;;;8.75;;
65691;SDS011;52411;52.716;6.696;2024-03-08T07:34:43;18.73;;;8.98;;
65691;SDS011;52411;52.716;6.696;2024-03-08T07:37:08;18.90;;;8.65;;
65691;SDS011;52411;52.716;6.696;2024-03-08T07:39:37;15.30;;;7.55;;
65691;SDS011;52411;52.716;6.696;2024-03-08T07:42:06;20.60;;;9.32;;
65691;SDS011;52411;52.716;6.696;2024-03-08T07:44:32;15.13;;;8.38;;
65691;SDS011;52411;52.716;6.696;2024-03-08T07:46:58;14.00;;;7.32;;
65691;SDS011;52411;52.716;6.696;2024-03-08T07:49:24;17.70;;;9.50;;
65691;SDS011;52411;52.716;6.696;2024-03-08T07:51:50;17.52;;;7.82;;
65691;SDS011;52411;52.716;6.696;2024-03-08T07:54:17;17.73;;;8.30;;
65691;SDS011;52411;52.716;6.696;2024-03-08T07:56:42;14.52;;;7.75;;
65691;SDS011;52411;52.716;6.696;2024-03-08T07:59:08;18.60;;;8.70;;
65691;SDS011;52411;52.716;6.696;2024-03-08T08:01:36;18.63;;;9.02;;
65691;SDS011;52411;52.716;6.696;2024-03-08T08:04:01;17.83;;;8.40;;
65691;SDS011;52411;52.716;6.696;2024-03-08T08:06:27;19.23;;;8.95;;
65691;SDS011;52411;52.716;6.696;2024-03-08T08:08:56;17.73;;;7.43;;
65691;SDS011;52411;52.716;6.696;2024-03-08T08:11:22;19.75;;;8.75;;
65691;SDS011;52411;52.716;6.696;2024-03-08T08:13:50;18.02;;;8.23;;
65691;SDS011;52411;52.716;6.696;2024-03-08T08:16:16;17.63;;;9.20;;
65691;SDS011;52411;52.716;6.696;2024-03-08T08:18:41;18.58;;;9.43;;
65691;SDS011;52411;52.716;6.696;2024-03-08T08:21:07;18.02;;;8.40;;
65691;SDS011;52411;52.716;6.696;2024-03-08T08:23:33;14.70;;;7.93;;
65691;SDS011;52411;52.716;6.696;2024-03-08T08:25:59;18.15;;;8.90;;
65691;SDS011;52411;52.716;6.696;2024-03-08T08:28:28;17.05;;;8.77;;
65691;SDS011;52411;52.716;6.696;2024-03-08T08:30:54;16.33;;;8.88;;
65691;SDS011;52411;52.716;6.696;2024-03-08T08:33:20;22.38;;;8.98;;
65691;SDS011;52411;52.716;6.696;2024-03-08T08:35:45;17.13;;;8.13;;
65691;SDS011;52411;52.716;6.696;2024-03-08T08:38:13;20.30;;;8.63;;
65691;SDS011;52411;52.716;6.696;2024-03-08T08:40:39;15.73;;;8.32;;
65691;SDS011;52411;52.716;6.696;2024-03-08T08:43:04;23.20;;;9.50;;
65691;SDS011;52411;52.716;6.696;2024-03-08T08:45:30;19.08;;;9.30;;
65691;SDS011;52411;52.716;6.696;2024-03-08T08:47:56;20.30;;;8.73;;
65691;SDS011;52411;52.716;6.696;2024-03-08T08:50:24;23.67;;;9.23;;
65691;SDS011;52411;52.716;6.696;2024-03-08T08:52:51;19.45;;;9.25;;
65691;SDS011;52411;52.716;6.696;2024-03-08T08:55:18;16.83;;;9.27;;
65691;SDS011;52411;52.716;6.696;2024-03-08T08:57:46;20.92;;;9.88;;
65691;SDS011;52411;52.716;6.696;2024-03-08T09:00:13;20.48;;;9.10;;
65691;SDS011;52411;52.716;6.696;2024-03-08T09:02:41;19.02;;;9.38;;
65691;SDS011;52411;52.716;6.696;2024-03-08T09:05:08;19.77;;;9.27;;
65691;SDS011;52411;52.716;6.696;2024-03-08T09:07:33;26.08;;;10.50;;
65691;SDS011;52411;52.716;6.696;2024-03-08T09:09:59;18.73;;;9.50;;
65691;SDS011;52411;52.716;6.696;2024-03-08T09:12:25;19.13;;;9.30;;
65691;SDS011;52411;52.716;6.696;2024-03-08T09:14:51;20.55;;;9.55;;
65691;SDS011;52411;52.716;6.696;2024-03-08T09:17:17;19.58;;;9.52;;
65691;SDS011;52411;52.716;6.696;2024-03-08T09:19:46;19.60;;;9.48;;
65691;SDS011;52411;52.716;6.696;2024-03-08T09:22:12;17.90;;;8.82;;
65691;SDS011;52411;52.716;6.696;2024-03-08T09:24:38;21.73;;;10.02;;
65691;SDS011;52411;52.716;6.696;2024-03-08T09:27:04;23.17;;;10.02;;
65691;SDS011;52411;52.716;6.696;2024-03-08T09:29:30;21.38;;;9.70;;
65691;SDS011;52411;52.716;6.696;2024-03-08T09:31:55;20.70;;;9.07;;
65691;SDS011;52411;52.716;6.696;2024-03-08T09:34:21;24.05;;;9.98;;
65691;SDS011;52411;52.716;6.696;2024-03-08T09:36:47;21.13;;;10.32;;
65691;SDS011;52411;52.716;6.696;2024-03-08T09:39:13;18.52;;;9.43;;
65691;SDS011;52411;52.716;6.696;2024-03-08T09:41:45;21.15;;;9.57;;
65691;SDS011;52411;52.716;6.696;2024-03-08T09:44:13;25.42;;;11.02;;
65691;SDS011;52411;52.716;6.696;2024-03-08T09:46:39;20.27;;;8.52;;
65691;SDS011;52411;52.716;6.696;2024-03-08T09:49:08;18.42;;;9.13;;
65691;SDS011;52411;52.716;6.696;2024-03-08T09:51:36;24.17;;;10.30;;
65691;SDS011;52411;52.716;6.696;2024-03-08T09:54:05;23.08;;;10.40;;
65691;SDS011;52411;52.716;6.696;2024-03-08T09:56:34;20.80;;;10.13;;
65691;SDS011;52411;52.716;6.696;2024-03-08T09:59:01;25.35;;;10.10;;
65691;SDS011;52411;52.716;6.696;2024-03-08T10:01:45;24.60;;;10.63;;
65691;SDS011;52411;52.716;6.696;2024-03-08T10:04:11;20.25;;;9.38;;
65691;SDS011;52411;52.716;6.696;2024-03-08T10:06:39;26.95;;;9.85;;
65691;SDS011;52411;52.716;6.696;2024-03-08T10:09:05;27.52;;;10.30;;
65691;SDS011;52411;52.716;6.696;2024-03-08T10:11:33;19.23;;;9.52;;
65691;SDS011;52411;52.716;6.696;2024-03-08T10:14:00;24.95;;;10.45;;
65691;SDS011;52411;52.716;6.696;2024-03-08T10:16:29;19.30;;;10.00;;
65691;SDS011;52411;52.716;6.696;2024-03-08T10:18:58;21.60;;;9.23;;
65691;SDS011;52411;52.716;6.696;2024-03-08T10:21:25;20.38;;;10.05;;
65691;SDS011;52411;52.716;6.696;2024-03-08T10:23:51;22.17;;;10.15;;
65691;SDS011;52411;52.716;6.696;2024-03-08T10:26:17;24.25;;;10.60;;
65691;SDS011;52411;52.716;6.696;2024-03-08T10:28:45;24.17;;;10.07;;
65691;SDS011;52411;52.716;6.696;2024-03-08T10:31:17;21.92;;;11.00;;
65691;SDS011;52411;52.716;6.696;2024-03-08T10:33:44;26.15;;;11.18;;
65691;SDS011;52411;52.716;6.696;2024-03-08T10:36:11;25.08;;;11.05;;
65691;SDS011;52411;52.716;6.696;2024-03-08T10:38:38;22.95;;;10.10;;
65691;SDS011;52411;52.716;6.696;2024-03-08T10:41:06;20.00;;;10.05;;
65691;SDS011;52411;52.716;6.696;2024-03-08T10:43:36;23.88;;;10.70;;
65691;SDS011;52411;52.716;6.696;2024-03-08T10:46:37;20.27;;;9.48;;
65691;SDS011;52411;52.716;6.696;2024-03-08T10:49:31;21.92;;;10.60;;
65691;SDS011;52411;52.716;6.696;2024-03-08T10:52:04;19.10;;;8.60;;
65691;SDS011;52411;52.716;6.696;2024-03-08T10:54:33;19.25;;;9.07;;
65691;SDS011;52411;52.716;6.696;2024-03-08T10:57:03;22.90;;;10.82;;
65691;SDS011;52411;52.716;6.696;2024-03-08T10:59:30;24.35;;;10.63;;
65691;SDS011;52411;52.716;6.696;2024-03-08T11:01:59;21.30;;;10.23;;
65691;SDS011;52411;52.716;6.696;2024-03-08T11:04:25;22.02;;;10.13;;
65691;SDS011;52411;52.716;6.696;2024-03-08T11:06:51;21.35;;;9.32;;
65691;SDS011;52411;52.716;6.696;2024-03-08T11:09:35;21.92;;;10.85;;
65691;SDS011;52411;52.716;6.696;2024-03-08T11:12:18;23.30;;;10.73;;
65691;SDS011;52411;52.716;6.696;2024-03-08T11:14:51;23.90;;;10.68;;
65691;SDS011;52411;52.716;6.696;2024-03-08T11:18:00;22.48;;;9.82;;
65691;SDS011;52411;52.716;6.696;2024-03-08T11:20:19;18.80;;;9.30;;
65691;SDS011;52411;52.716;6.696;2024-03-08T11:22:54;24.63;;;10.48;;
65691;SDS011;52411;52.716;6.696;2024-03-08T11:28:19;23.55;;;9.90;;
65691;SDS011;52411;52.716;6.696;2024-03-08T11:33:16;29.30;;;10.43;;
65691;SDS011;52411;52.716;6.696;2024-03-08T11:35:50;23.15;;;9.68;;
65691;SDS011;52411;52.716;6.696;2024-03-08T11:38:15;28.08;;;9.57;;
65691;SDS011;52411;52.716;6.696;2024-03-08T11:40:41;28.17;;;10.30;;
65691;SDS011;52411;52.716;6.696;2024-03-08T11:43:08;21.25;;;10.65;;
65691;SDS011;52411;52.716;6.696;2024-03-08T11:45:34;26.02;;;10.65;;
65691;SDS011;52411;52.716;6.696;2024-03-08T11:48:03;23.58;;;9.73;;
65691;SDS011;52411;52.716;6.696;2024-03-08T11:50:30;21.60;;;10.38;;
65691;SDS011;52411;52.716;6.696;2024-03-08T11:53:03;24.48;;;10.00;;
65691;SDS011;52411;52.716;6.696;2024-03-08T11:55:30;21.88;;;9.05;;
65691;SDS011;52411;52.716;6.696;2024-03-08T11:58:04;20.98;;;9.80;;
65691;SDS011;52411;52.716;6.696;2024-03-08T12:00:33;22.00;;;9.82;;
65691;SDS011;52411;52.716;6.696;2024-03-08T12:03:06;24.30;;;10.25;;
65691;SDS011;52411;52.716;6.696;2024-03-08T12:08:00;26.13;;;10.00;;
65691;SDS011;52411;52.716;6.696;2024-03-08T12:10:31;18.88;;;9.48;;
65691;SDS011;52411;52.716;6.696;2024-03-08T12:12:58;18.13;;;9.25;;
65691;SDS011;52411;52.716;6.696;2024-03-08T12:15:28;21.52;;;9.55;;
65691;SDS011;52411;52.716;6.696;2024-03-08T12:17:54;20.70;;;9.35;;
65691;SDS011;52411;52.716;6.696;2024-03-08T12:22:48;22.77;;;9.68;;
65691;SDS011;52411;52.716;6.696;2024-03-08T12:25:17;21.27;;;9.27;;
65691;SDS011;52411;52.716;6.696;2024-03-08T12:27:43;21.30;;;9.93;;
65691;SDS011;52411;52.716;6.696;2024-03-08T12:30:18;24.15;;;10.60;;
65691;SDS011;52411;52.716;6.696;2024-03-08T12:32:57;22.80;;;10.10;;
65691;SDS011;52411;52.716;6.696;2024-03-08T12:35:28;19.90;;;9.18;;
65691;SDS011;52411;52.716;6.696;2024-03-08T12:37:56;21.33;;;9.50;;
65691;SDS011;52411;52.716;6.696;2024-03-08T12:40:29;20.98;;;9.02;;
65691;SDS011;52411;52.716;6.696;2024-03-08T12:42:57;22.27;;;9.30;;
65691;SDS011;52411;52.716;6.696;2024-03-08T12:45:23;19.67;;;8.95;;
65691;SDS011;52411;52.716;6.696;2024-03-08T12:47:53;23.77;;;9.23;;
65691;SDS011;52411;52.716;6.696;2024-03-08T12:50:22;21.40;;;9.10;;
65691;SDS011;52411;52.716;6.696;2024-03-08T12:52:50;18.92;;;9.27;;
65691;SDS011;52411;52.716;6.696;2024-03-08T12:55:17;19.10;;;8.73;;
65691;SDS011;52411;52.716;6.696;2024-03-08T12:57:44;20.33;;;9.55;;
65691;SDS011;52411;52.716;6.696;2024-03-08T13:00:10;19.40;;;9.38;;
65691;SDS011;52411;52.716;6.696;2024-03-08T13:02:44;22.00;;;9.18;;
65691;SDS011;52411;52.716;6.696;2024-03-08T13:05:10;21.17;;;9.18;;
65691;SDS011;52411;52.716;6.696;2024-03-08T13:07:39;20.30;;;9.55;;
65691;SDS011;52411;52.716;6.696;2024-03-08T13:10:14;24.05;;;9.38;;
65691;SDS011;52411;52.716;6.696;2024-03-08T13:12:43;19.77;;;8.70;;
65691;SDS011;52411;52.716;6.696;2024-03-08T13:15:09;20.20;;;8.63;;
65691;SDS011;52411;52.716;6.696;2024-03-08T13:17:56;19.70;;;8.38;;
65691;SDS011;52411;52.716;6.696;2024-03-08T13:20:25;19.40;;;8.35;;
65691;SDS011;52411;52.716;6.696;2024-03-08T13:22:53;20.63;;;8.77;;
65691;SDS011;52411;52.716;6.696;2024-03-08T13:25:19;23.98;;;9.38;;
65691;SDS011;52411;52.716;6.696;2024-03-08T13:27:45;24.00;;;10.48;;
65691;SDS011;52411;52.716;6.696;2024-03-08T13:30:11;20.00;;;9.43;;
65691;SDS011;52411;52.716;6.696;2024-03-08T13:32:42;21.38;;;10.18;;
65691;SDS011;52411;52.716;6.696;2024-03-08T13:35:11;15.55;;;7.75;;
65691;SDS011;52411;52.716;6.696;2024-03-08T13:37:41;18.98;;;9.85;;
65691;SDS011;52411;52.716;6.696;2024-03-08T13:40:07;18.42;;;8.98;;
65691;SDS011;52411;52.716;6.696;2024-03-08T13:42:39;20.52;;;9.73;;
65691;SDS011;52411;52.716;6.696;2024-03-08T13:45:06;20.88;;;10.20;;
65691;SDS011;52411;52.716;6.696;2024-03-08T13:47:35;24.20;;;9.27;;
65691;SDS011;52411;52.716;6.696;2024-03-08T13:50:02;19.52;;;9.48;;
65691;SDS011;52411;52.716;6.696;2024-03-08T13:52:29;23.40;;;10.18;;
65691;SDS011;52411;52.716;6.696;2024-03-08T13:54:54;22.50;;;9.45;;
65691;SDS011;52411;52.716;6.696;2024-03-08T13:57:20;19.45;;;9.48;;
65691;SDS011;52411;52.716;6.696;2024-03-08T13:59:47;17.98;;;8.18;;
65691;SDS011;52411;52.716;6.696;2024-03-08T14:02:16;18.70;;;8.75;;
65691;SDS011;52411;52.716;6.696;2024-03-08T14:04:42;21.65;;;10.07;;
65691;SDS011;52411;52.716;6.696;2024-03-08T14:07:08;21.67;;;9.25;;
65691;SDS011;52411;52.716;6.696;2024-03-08T14:09:34;17.42;;;8.90;;
65691;SDS011;52411;52.716;6.696;2024-03-08T14:12:03;17.48;;;8.40;;
65691;SDS011;52411;52.716;6.696;2024-03-08T14:14:32;22.33;;;9.80;;
65691;SDS011;52411;52.716;6.696;2024-03-08T14:17:00;20.63;;;9.32;;
65691;SDS011;52411;52.716;6.696;2024-03-08T14:19:29;19.33;;;9.00;;
65691;SDS011;52411;52.716;6.696;2024-03-08T14:21:59;17.60;;;8.25;;
65691;SDS011;52411;52.716;6.696;2024-03-08T14:24:25;19.02;;;8.75;;
65691;SDS011;52411;52.716;6.696;2024-03-08T14:26:50;18.15;;;8.95;;
65691;SDS011;52411;52.716;6.696;2024-03-08T14:29:17;19.60;;;8.65;;
65691;SDS011;52411;52.716;6.696;2024-03-08T14:31:44;17.15;;;8.52;;
65691;SDS011;52411;52.716;6.696;2024-03-08T14:34:10;19.67;;;8.48;;
65691;SDS011;52411;52.716;6.696;2024-03-08T14:36:36;17.20;;;8.57;;
65691;SDS011;52411;52.716;6.696;2024-03-08T14:39:03;19.80;;;8.95;;
65691;SDS011;52411;52.716;6.696;2024-03-08T14:41:28;21.17;;;9.40;;
65691;SDS011;52411;52.716;6.696;2024-03-08T14:43:55;18.48;;;8.38;;
65691;SDS011;52411;52.716;6.696;2024-03-08T14:46:22;18.48;;;8.55;;
65691;SDS011;52411;52.716;6.696;2024-03-08T14:48:51;19.50;;;8.45;;
65691;SDS011;52411;52.716;6.696;2024-03-08T14:51:20;19.52;;;8.93;;